Time;durP1;ratioP1;P1;durP2;ratioP2;P2;SDS_P1;SDS_P2;PMS_P1;PMS_P2;Temp;Humidity;BMP_temperature;BMP_pressure;BME280_temperature;BME280_humidity;BME280_pressure;Samples;Min_cycle;Max_cycle;Signal;HPM_P1;HPM_P2
2023/08/11 00:01:22;;;;;;;2.90;2.70;;;;;;;20.67;73.19;100088.84;5056145;28;20041;-67
2023/08/11 00:03:48;;;;;;;3.00;2.72;;;;;;;20.59;73.43;100095.31;5056747;28;20035;-65
2023/08/11 00:06:16;;;;;;;3.03;2.42;;;;;;;20.57;73.71;100092.03;5056627;28;20041;-66
2023/08/11 00:08:42;;;;;;;3.63;2.40;;;;;;;20.52;74.76;100089.16;5057184;28;20033;-67
2023/08/11 00:11:07;;;;;;;3.45;3.00;;;;;;;20.52;75.15;100088.34;5056811;28;20059;-65
2023/08/11 00:13:33;;;;;;;3.42;2.80;;;;;;;20.44;75.94;100083.25;5058046;28;20033;-65
2023/08/11 00:16:01;;;;;;;4.68;2.80;;;;;;;20.35;76.54;100083.47;5057642;28;20278;-65
2023/08/11 00:18:26;;;;;;;5.22;2.75;;;;;;;20.37;76.58;100085.94;5058385;28;20029;-66
2023/08/11 00:20:51;;;;;;;3.35;2.30;;;;;;;20.38;76.58;100077.66;5056425;28;20254;-67
2023/08/11 00:23:17;;;;;;;2.75;2.13;;;;;;;20.39;76.49;100075.81;5055863;28;20242;-67
2023/08/11 00:25:42;;;;;;;2.63;2.42;;;;;;;20.39;76.37;100086.59;5055931;28;20098;-65
2023/08/11 00:28:08;;;;;;;2.60;2.40;;;;;;;20.42;75.98;100082.63;5054653;28;20036;-67
2023/08/11 00:30:33;;;;;;;2.85;2.50;;;;;;;20.50;75.80;100085.06;5054721;28;20041;-65
2023/08/11 00:32:59;;;;;;;3.05;2.70;;;;;;;20.61;74.95;100084.34;5055098;28;20040;-66
2023/08/11 00:35:24;;;;;;;5.10;3.35;;;;;;;20.56;75.22;100081.50;5055323;28;20048;-65
2023/08/11 00:37:50;;;;;;;4.35;2.80;;;;;;;20.58;75.02;100082.09;5055536;28;20071;-65
2023/08/11 00:40:16;;;;;;;3.28;2.95;;;;;;;20.66;74.11;100089.91;5055191;28;20306;-67
2023/08/11 00:42:42;;;;;;;3.20;2.60;;;;;;;20.67;73.53;100099.63;5055069;28;20032;-66
2023/08/11 00:45:08;;;;;;;2.92;2.70;;;;;;;20.66;73.96;100093.41;5056722;28;20348;-67
2023/08/11 00:47:35;;;;;;;3.13;2.83;;;;;;;20.66;74.13;100089.91;5055440;28;20037;-67
2023/08/11 00:50:02;;;;;;;3.35;3.00;;;;;;;20.51;73.93;100095.59;5054730;28;20021;-66
2023/08/11 00:52:28;;;;;;;4.80;2.80;;;;;;;20.48;74.32;100093.34;5055855;28;20124;-67
2023/08/11 00:54:56;;;;;;;3.75;2.75;;;;;;;20.53;73.29;100095.38;5055332;28;21230;-65
2023/08/11 00:57:21;;;;;;;3.13;2.55;;;;;;;20.55;72.59;100087.91;5055659;28;20041;-67
2023/08/11 00:59:48;;;;;;;2.70;2.50;;;;;;;20.53;72.54;100087.31;5055772;28;20037;-66
2023/08/11 01:02:14;;;;;;;3.03;2.72;;;;;;;20.41;73.48;100087.19;5055225;28;20135;-67
2023/08/11 01:04:39;;;;;;;3.53;2.95;;;;;;;20.34;74.35;100081.81;5054481;28;20040;-66
2023/08/11 01:07:14;;;;;;;3.47;2.90;;;;;;;20.31;74.29;100090.31;5056389;28;20037;-67
2023/08/11 01:09:42;;;;;;;4.45;3.20;;;;;;;20.20;75.55;100092.88;5056490;28;20044;-67
2023/08/11 01:12:45;;;;;;;3.25;2.95;;;;;;;20.17;75.96;100094.13;5057005;28;20310;-67
2023/08/11 01:15:14;;;;;;;3.20;2.70;;;;;;;19.94;76.47;100092.00;5054719;28;20043;-66
2023/08/11 01:17:41;;;;;;;3.05;2.55;;;;;;;19.97;76.83;100093.41;5054201;28;20082;-66
2023/08/11 01:20:10;;;;;;;3.85;2.80;;;;;;;19.97;76.70;100093.41;5037371;28;20057;-67
2023/08/11 01:22:38;;;;;;;3.05;2.80;;;;;;;19.86;77.18;100096.78;5038887;28;20029;-67
2023/08/11 01:25:06;;;;;;;2.92;2.58;;;;;;;19.90;76.90;100088.09;5055840;28;20036;-67
2023/08/11 01:27:36;;;;;;;2.70;2.50;;;;;;;19.89;76.73;100096.34;5054600;28;20040;-66
2023/08/11 01:30:06;;;;;;;4.18;2.63;;;;;;;19.96;76.50;100095.28;5054453;28;20215;-67
2023/08/11 01:32:31;;;;;;;3.10;2.88;;;;;;;19.98;76.48;100095.06;5054031;28;20052;-65
2023/08/11 01:34:57;;;;;;;3.83;2.65;;;;;;;20.00;76.32;100103.75;5054990;28;20113;-65
2023/08/11 01:37:22;;;;;;;2.58;2.28;;;;;;;20.01;76.09;100102.72;5054659;28;20104;-67
2023/08/11 01:39:48;;;;;;;3.30;2.42;;;;;;;20.03;75.43;100104.13;5055059;28;20624;-67
2023/08/11 01:42:15;;;;;;;4.20;2.25;;;;;;;19.98;75.35;100112.03;5054920;28;20041;-66
2023/08/11 01:44:41;;;;;;;3.88;2.47;;;;;;;19.92;75.51;100107.50;5053682;28;20025;-65
2023/08/11 01:47:09;;;;;;;2.70;2.50;;;;;;;19.85;75.74;100103.19;5054061;28;20043;-67
2023/08/11 01:49:35;;;;;;;3.75;2.38;;;;;;;19.84;75.85;100094.31;5054365;28;20510;-65
2023/08/11 01:52:01;;;;;;;3.10;2.78;;;;;;;19.90;75.68;100103.38;5054363;28;20119;-67
2023/08/11 01:54:27;;;;;;;3.40;2.75;;;;;;;19.94;75.28;100109.97;5054459;28;20250;-66
2023/08/11 01:56:54;;;;;;;2.70;2.50;;;;;;;19.95;75.13;100109.75;5054110;28;20045;-67
2023/08/11 01:59:20;;;;;;;2.70;2.47;;;;;;;19.98;74.94;100111.19;5054124;28;20204;-67
2023/08/11 02:01:46;;;;;;;2.50;2.22;;;;;;;20.03;74.73;100103.31;5053840;28;20410;-67
2023/08/11 02:04:12;;;;;;;2.70;2.30;;;;;;;19.99;74.68;100110.16;5054543;28;20204;-65
2023/08/11 02:06:39;;;;;;;2.78;2.50;;;;;;;20.00;74.87;100098.38;5054017;28;20053;-64
2023/08/11 02:09:08;;;;;;;4.15;2.45;;;;;;;19.96;74.59;100108.72;5055921;28;20099;-66
2023/08/11 02:11:37;;;;;;;2.70;2.50;;;;;;;19.85;74.69;100105.88;5056082;28;20085;-66
2023/08/11 02:14:03;;;;;;;2.55;2.35;;;;;;;19.75;74.61;100099.06;5055494;28;20029;-67
2023/08/11 02:16:29;;;;;;;3.20;2.30;;;;;;;19.68;74.63;100103.66;5055272;28;20098;-67
2023/08/11 02:18:55;;;;;;;2.47;1.98;;;;;;;19.55;74.96;100100.19;5054265;28;20042;-66
2023/08/11 02:21:21;;;;;;;2.80;2.60;;;;;;;19.48;75.21;100102.84;5054399;28;20044;-65
2023/08/11 02:23:46;;;;;;;2.38;2.15;;;;;;;19.45;74.79;100097.91;5054785;28;20220;-67
2023/08/11 02:26:13;;;;;;;4.70;2.50;;;;;;;19.43;74.86;100091.94;5055000;28;20040;-67
2023/08/11 02:28:38;;;;;;;2.60;2.30;;;;;;;19.40;74.60;100082.44;5056400;28;20036;-67
2023/08/11 02:31:04;;;;;;;2.53;2.17;;;;;;;19.40;74.71;100095.03;5058609;28;20041;-65
2023/08/11 02:33:29;;;;;;;4.43;2.20;;;;;;;19.40;74.84;100093.16;5057756;28;20049;-65
2023/08/11 02:35:55;;;;;;;3.13;2.40;;;;;;;19.38;74.94;100097.09;5058078;28;20451;-67
2023/08/11 02:38:20;;;;;;;3.35;2.72;;;;;;;19.35;75.06;100101.03;5057995;28;20060;-67
2023/08/11 02:40:46;;;;;;;4.93;2.38;;;;;;;19.43;74.98;100108.03;5057562;28;20037;-67
2023/08/11 02:43:11;;;;;;;3.78;2.22;;;;;;;19.47;74.66;100103.91;5057990;28;20036;-66
2023/08/11 02:45:37;;;;;;;2.60;2.38;;;;;;;19.39;74.29;100113.00;5059347;28;20051;-67
2023/08/11 02:48:02;;;;;;;11.55;3.10;;;;;;;19.26;75.27;100110.34;5058201;28;20086;-67
2023/08/11 02:50:28;;;;;;;2.53;2.30;;;;;;;19.28;75.26;100110.97;5057798;28;20047;-67
2023/08/11 02:52:53;;;;;;;3.42;3.00;;;;;;;19.23;76.00;100118.00;5057286;28;20359;-66
2023/08/11 02:55:19;;;;;;;3.72;2.45;;;;;;;19.38;75.53;100119.41;5057979;28;20045;-67
2023/08/11 02:57:45;;;;;;;4.10;2.63;;;;;;;19.46;75.47;100127.25;5058733;28;20033;-67
2023/08/11 03:00:14;;;;;;;4.43;3.13;;;;;;;19.50;75.16;100124.97;5057100;28;20257;-66
2023/08/11 03:02:41;;;;;;;4.78;2.92;;;;;;;19.24;75.51;100117.78;5057655;28;20230;-67
2023/08/11 03:05:09;;;;;;;4.63;2.88;;;;;;;19.31;75.87;100126.66;5056676;28;20262;-65
2023/08/11 03:07:35;;;;;;;6.63;2.88;;;;;;;19.27;76.10;100127.28;5058147;28;20036;-66
2023/08/11 03:10:01;;;;;;;4.28;2.90;;;;;;;19.23;75.90;100126.88;5059196;28;20259;-65
2023/08/11 03:12:29;;;;;;;2.90;2.65;;;;;;;19.19;76.13;100136.38;5060178;28;20059;-65
2023/08/11 03:14:55;;;;;;;3.67;2.75;;;;;;;19.25;76.33;100145.47;5058238;28;20096;-67
2023/08/11 03:17:21;;;;;;;4.43;3.10;;;;;;;19.19;77.29;100144.44;5056983;28;20417;-66
2023/08/11 03:19:47;;;;;;;4.30;3.13;;;;;;;19.06;77.69;100125.66;5057520;28;20043;-65
2023/08/11 03:22:13;;;;;;;4.55;3.65;;;;;;;18.79;79.76;100149.00;5057269;28;20233;-65
2023/08/11 03:24:39;;;;;;;4.22;3.05;;;;;;;18.73;80.11;100142.59;5057320;28;20255;-67
2023/08/11 03:27:05;;;;;;;3.05;2.75;;;;;;;18.74;79.75;100152.28;5056347;28;20265;-67
2023/08/11 03:29:31;;;;;;;4.07;3.00;;;;;;;18.66;79.78;100146.25;5056229;28;20218;-65
2023/08/11 03:31:56;;;;;;;3.03;2.72;;;;;;;18.65;80.24;100148.13;5056721;28;20078;-66
2023/08/11 03:34:22;;;;;;;3.60;2.83;;;;;;;18.85;79.38;100147.34;5056991;28;20063;-65
2023/08/11 03:36:47;;;;;;;3.90;3.05;;;;;;;18.83;79.72;100152.91;5056653;28;20033;-67
2023/08/11 03:39:13;;;;;;;4.18;2.63;;;;;;;18.96;79.35;100150.22;5056396;28;20041;-67
2023/08/11 03:41:38;;;;;;;4.90;3.05;;;;;;;18.98;79.30;100150.03;5055385;28;20037;-65
2023/08/11 03:44:04;;;;;;;5.75;3.35;;;;;;;18.84;79.65;100154.56;5057155;28;20029;-65
2023/08/11 03:46:30;;;;;;;3.78;3.28;;;;;;;18.80;80.30;100156.00;5056933;28;20114;-67
2023/08/11 03:48:57;;;;;;;4.60;3.20;;;;;;;18.88;80.01;100158.47;5057147;28;20040;-67
2023/08/11 03:51:22;;;;;;;5.40;4.47;;;;;;;18.89;79.93;100156.63;5055857;28;20045;-67
2023/08/11 03:53:48;;;;;;;5.22;3.67;;;;;;;18.70;81.33;100148.34;5056585;28;20032;-65
2023/08/11 03:56:13;;;;;;;3.63;3.33;;;;;;;18.89;80.57;100160.13;5056455;28;20050;-65
2023/08/11 03:58:39;;;;;;;4.75;3.42;;;;;;;18.78;80.80;100158.06;5056688;28;20064;-66
2023/08/11 04:01:04;;;;;;;4.72;3.58;;;;;;;18.97;80.22;100153.75;5056321;28;20056;-67
2023/08/11 04:03:32;;;;;;;5.28;3.60;;;;;;;18.87;80.13;100148.78;5056275;28;20037;-65
2023/08/11 04:05:59;;;;;;;3.85;2.90;;;;;;;18.99;79.85;100152.50;5056654;28;20033;-64
2023/08/11 04:08:26;;;;;;;4.10;3.08;;;;;;;18.97;80.31;100154.56;5056985;28;20024;-67
2023/08/11 04:10:53;;;;;;;4.15;3.75;;;;;;;18.97;80.36;100153.75;5056318;28;20029;-67
2023/08/11 04:13:19;;;;;;;4.38;2.78;;;;;;;19.03;80.03;100151.06;5057881;28;20054;-65
2023/08/11 04:15:45;;;;;;;5.30;3.65;;;;;;;19.11;79.50;100150.84;5056411;28;20028;-67
2023/08/11 04:18:12;;;;;;;4.50;3.13;;;;;;;19.12;79.44;100162.41;5055455;28;20082;-65
2023/08/11 04:20:38;;;;;;;4.25;3.17;;;;;;;19.11;79.22;100156.22;5055722;28;20095;-66
2023/08/11 04:23:03;;;;;;;3.22;2.92;;;;;;;19.10;79.75;100162.63;5055828;28;20438;-65
2023/08/11 04:25:29;;;;;;;13.40;4.53;;;;;;;19.05;80.32;100169.63;5056606;28;20032;-67
2023/08/11 04:27:55;;;;;;;5.65;3.10;;;;;;;19.26;79.18;100165.91;5056638;28;20021;-67
2023/08/11 04:30:21;;;;;;;10.15;3.17;;;;;;;19.32;78.88;100167.75;5055156;28;20041;-65
2023/08/11 04:32:47;;;;;;;8.98;4.22;;;;;;;19.44;78.90;100182.19;5054786;28;20044;-65
2023/08/11 04:35:13;;;;;;;3.88;3.05;;;;;;;19.54;78.36;100177.25;5055497;28;20104;-65
2023/08/11 04:37:39;;;;;;;5.93;3.97;;;;;;;19.61;78.21;100179.91;5055319;28;20118;-67
2023/08/11 04:40:09;;;;;;;4.72;3.03;;;;;;;19.63;77.97;100167.09;5055513;28;20025;-65
2023/08/11 04:42:34;;;;;;;6.43;3.20;;;;;;;19.72;77.88;100173.91;5055385;28;20097;-67
2023/08/11 04:45:00;;;;;;;4.15;3.13;;;;;;;19.89;76.98;100179.66;5055656;28;20037;-65
2023/08/11 04:47:25;;;;;;;5.00;3.80;;;;;;;20.02;76.67;100176.94;5055770;28;20028;-67
2023/08/11 04:49:51;;;;;;;6.55;4.88;;;;;;;20.13;76.25;100186.19;5056550;28;20033;-66
2023/08/11 04:52:17;;;;;;;9.13;8.43;;;;;;;20.21;75.36;100192.16;5056438;28;20039;-67
2023/08/11 04:54:42;;;;;;;5.70;5.20;;;;;;;20.45;74.33;100198.69;5056323;28;20033;-67
2023/08/11 04:57:08;;;;;;;12.00;10.75;;;;;;;20.90;73.55;100198.63;5055129;28;20094;-65
2023/08/11 04:59:33;;;;;;;7.93;6.68;;;;;;;21.16;71.91;100194.91;5055690;28;20028;-65
2023/08/11 05:02:00;;;;;;;3.92;3.15;;;;;;;21.40;70.40;100188.72;5055816;28;20043;-65
2023/08/11 05:04:25;;;;;;;4.10;3.70;;;;;;;21.54;70.12;100194.78;5056300;28;20036;-66
2023/08/11 05:06:51;;;;;;;7.63;5.22;;;;;;;21.71;68.51;100193.16;5056058;28;20041;-66
2023/08/11 05:09:16;;;;;;;5.82;4.88;;;;;;;21.78;68.59;100188.53;5055303;28;20230;-65
2023/08/11 05:11:42;;;;;;;6.65;4.88;;;;;;;21.91;67.60;100190.28;5055535;28;20299;-66
2023/08/11 05:14:07;;;;;;;6.47;5.85;;;;;;;22.06;66.76;100184.53;5054014;28;20052;-66
2023/08/11 05:16:33;;;;;;;5.00;4.32;;;;;;;22.12;65.96;100189.03;5054771;28;20106;-66
2023/08/11 05:18:58;;;;;;;5.28;4.78;;;;;;;22.32;64.99;100188.75;5054612;28;20105;-67
2023/08/11 05:21:24;;;;;;;7.13;6.43;;;;;;;22.55;64.75;100194.25;5027189;28;20070;-65
2023/08/11 05:23:50;;;;;;;6.10;5.60;;;;;;;22.68;63.76;100187.84;5054679;28;20029;-66
2023/08/11 05:26:15;;;;;;;5.82;5.22;;;;;;;22.81;63.25;100185.78;5054982;28;20033;-66
2023/08/11 05:28:41;;;;;;;4.88;3.00;;;;;;;23.00;61.62;100188.44;5053906;28;20091;-67
2023/08/11 05:31:07;;;;;;;4.35;2.83;;;;;;;23.11;61.02;100183.06;5053952;28;20025;-66
2023/08/11 05:33:33;;;;;;;7.18;3.10;;;;;;;23.21;60.86;100179.78;5056385;28;20251;-67
2023/08/11 05:35:59;;;;;;;6.10;4.30;;;;;;;23.30;60.79;100180.25;5056386;28;20068;-67
2023/08/11 05:38:24;;;;;;;7.43;6.78;;;;;;;23.16;60.90;100176.97;5054264;28;20222;-67
2023/08/11 05:40:50;;;;;;;6.97;3.03;;;;;;;23.40;59.43;100180.50;5054851;28;20037;-66
2023/08/11 05:43:15;;;;;;;3.63;2.42;;;;;;;23.50;59.42;100186.94;5054941;28;20044;-66
2023/08/11 05:45:41;;;;;;;4.93;2.97;;;;;;;23.53;58.52;100178.38;5053779;28;20045;-66
2023/08/11 05:48:07;;;;;;;6.57;2.95;;;;;;;23.40;59.23;100183.19;5054218;28;20367;-66
2023/08/11 05:50:32;;;;;;;6.03;3.17;;;;;;;23.69;58.23;100193.06;5053958;28;20433;-65
2023/08/11 05:52:58;;;;;;;4.55;2.25;;;;;;;23.86;57.12;100193.16;5054515;28;20204;-65
2023/08/11 05:55:23;;;;;;;6.45;3.55;;;;;;;23.98;56.66;100194.00;5055514;28;20369;-66
2023/08/11 05:57:49;;;;;;;4.60;2.60;;;;;;;24.00;55.51;100188.34;5053946;28;20093;-66
2023/08/11 06:00:18;;;;;;;7.15;4.90;;;;;;;24.03;55.78;100196.81;5054011;28;20041;-67
2023/08/11 06:02:44;;;;;;;4.93;2.60;;;;;;;24.00;54.72;100183.75;5054344;28;20047;-67
2023/08/11 06:05:09;;;;;;;4.30;3.85;;;;;;;24.14;54.14;100195.94;5053606;28;20069;-67
2023/08/11 06:07:35;;;;;;;4.20;3.47;;;;;;;23.90;53.63;100188.91;5054846;28;20025;-65
2023/08/11 06:10:00;;;;;;;3.83;3.53;;;;;;;24.01;54.05;100184.56;5055027;28;20033;-66
2023/08/11 06:12:26;;;;;;;6.35;3.47;;;;;;;24.24;54.08;100184.50;5054924;28;20037;-66
2023/08/11 06:14:51;;;;;;;2.95;2.65;;;;;;;24.52;53.57;100186.41;5054501;28;20085;-67
2023/08/11 06:17:17;;;;;;;3.22;2.53;;;;;;;24.51;52.45;100187.47;5054735;28;20040;-65
2023/08/11 06:19:42;;;;;;;6.63;2.90;;;;;;;24.44;53.52;100190.34;5054325;28;20139;-65
2023/08/11 06:22:08;;;;;;;2.63;2.33;;;;;;;24.63;51.77;100188.25;5054167;28;20045;-67
2023/08/11 06:24:33;;;;;;;4.15;2.55;;;;;;;24.62;52.01;100191.19;5054045;28;20233;-65
2023/08/11 06:26:59;;;;;;;3.15;2.75;;;;;;;24.65;51.67;100194.25;5054069;28;20044;-66
2023/08/11 06:29:25;;;;;;;2.47;2.28;;;;;;;24.86;51.33;100197.31;5052659;28;20289;-66
2023/08/11 06:31:50;;;;;;;2.72;2.53;;;;;;;24.93;50.33;100201.50;5046718;28;20029;-66
2023/08/11 06:34:18;;;;;;;4.93;2.60;;;;;;;25.09;51.45;100198.03;5041628;28;20045;-67
2023/08/11 06:36:47;;;;;;;3.22;2.30;;;;;;;25.25;50.33;100192.88;5042624;28;20032;-65
2023/08/11 06:39:13;;;;;;;2.53;2.30;;;;;;;25.35;49.59;100193.84;5042311;28;20052;-66
2023/08/11 06:41:39;;;;;;;3.47;2.42;;;;;;;25.41;49.56;100200.97;5041360;28;20033;-66
2023/08/11 06:44:07;;;;;;;4.05;2.63;;;;;;;25.62;48.64;100198.56;5041073;28;20045;-65
2023/08/11 06:46:34;;;;;;;3.33;2.60;;;;;;;25.83;48.66;100205.13;5041265;28;20083;-67
2023/08/11 06:48:59;;;;;;;3.10;2.55;;;;;;;25.84;47.42;100204.88;5040037;28;20025;-66
2023/08/11 06:51:25;;;;;;;3.85;2.20;;;;;;;25.95;46.96;100205.81;5040293;28;20299;-67
2023/08/11 06:53:50;;;;;;;4.70;2.90;;;;;;;26.14;47.07;100207.19;5043459;28;20040;-65
2023/08/11 06:56:16;;;;;;;5.22;3.42;;;;;;;26.39;47.38;100202.06;5041469;28;20087;-66
2023/08/11 06:58:41;;;;;;;3.72;2.42;;;;;;;26.57;45.35;100200.91;5042705;28;20037;-67
2023/08/11 07:01:07;;;;;;;3.50;2.20;;;;;;;26.53;45.31;100202.50;5042454;28;20052;-66
2023/08/11 07:03:33;;;;;;;3.55;2.53;;;;;;;26.52;44.91;100200.03;5042660;28;20032;-66
2023/08/11 07:06:02;;;;;;;3.28;2.40;;;;;;;26.58;44.57;100204.44;5042383;28;20036;-66
2023/08/11 07:08:29;;;;;;;2.70;2.13;;;;;;;26.65;44.74;100205.88;5043394;28;20036;-66
2023/08/11 07:10:54;;;;;;;2.67;2.15;;;;;;;26.77;43.46;100203.00;5041893;28;20056;-66
2023/08/11 07:13:20;;;;;;;2.63;2.42;;;;;;;26.86;44.17;100201.44;5039616;28;20033;-67
2023/08/11 07:15:46;;;;;;;3.70;2.75;;;;;;;27.04;43.61;100216.59;5039956;28;20036;-66
2023/08/11 07:18:12;;;;;;;4.47;2.80;;;;;;;27.29;43.48;100210.56;5044419;28;20051;-67
2023/08/11 07:20:41;;;;;;;4.22;2.65;;;;;;;27.15;42.53;100212.09;5043665;28;20230;-67
2023/08/11 07:23:07;;;;;;;4.85;2.28;;;;;;;27.28;42.12;100212.47;5044530;28;20029;-66
2023/08/11 07:25:32;;;;;;;2.95;1.98;;;;;;;27.44;40.45;100207.13;5042815;28;20361;-66
2023/08/11 07:27:58;;;;;;;2.03;1.83;;;;;;;27.57;40.36;100214.84;5044369;28;20047;-67
2023/08/11 07:30:23;;;;;;;4.63;2.47;;;;;;;27.64;40.70;100212.72;5045883;28;20295;-67
2023/08/11 07:32:49;;;;;;;4.85;4.05;;;;;;;27.63;40.99;100213.81;5044478;28;20240;-66
2023/08/11 07:35:14;;;;;;;4.32;3.92;;;;;;;27.69;40.18;100212.75;5044341;28;20044;-66
2023/08/11 07:37:40;;;;;;;2.83;2.42;;;;;;;28.03;40.34;100215.94;5045194;28;20303;-67
2023/08/11 07:40:06;;;;;;;3.25;3.00;;;;;;;28.07;38.70;100208.03;5043147;28;20237;-66
2023/08/11 07:42:32;;;;;;;2.65;2.05;;;;;;;28.07;38.04;100210.78;5044222;28;20319;-67
2023/08/11 07:44:57;;;;;;;4.40;4.00;;;;;;;28.27;39.01;100219.06;5045308;28;20033;-67
2023/08/11 07:47:23;;;;;;;4.13;2.92;;;;;;;28.14;38.92;100211.38;5042660;28;20057;-67
2023/08/11 07:49:48;;;;;;;5.18;2.65;;;;;;;28.18;38.50;100210.56;5044370;28;20258;-67
2023/08/11 07:52:14;;;;;;;5.80;2.47;;;;;;;28.31;38.38;100220.19;5043486;28;20357;-67
2023/08/11 07:54:39;;;;;;;2.78;2.53;;;;;;;28.47;38.44;100216.41;5044920;28;20450;-66
2023/08/11 07:57:05;;;;;;;2.95;2.75;;;;;;;28.35;38.73;100198.69;5043481;28;20049;-68
2023/08/11 07:59:30;;;;;;;2.58;2.00;;;;;;;28.69;38.09;100213.47;5044543;28;20306;-66
2023/08/11 08:01:55;;;;;;;3.40;1.95;;;;;;;28.81;37.82;100211.28;5042242;28;20063;-67
2023/08/11 08:04:21;;;;;;;2.17;1.92;;;;;;;28.96;36.97;100212.44;5044843;28;20082;-66
2023/08/11 08:06:46;;;;;;;2.58;2.30;;;;;;;28.96;36.72;100213.25;5045331;28;20198;-67
2023/08/11 08:09:14;;;;;;;2.17;1.98;;;;;;;28.90;36.37;100204.25;5044426;28;20041;-65
2023/08/11 08:11:43;;;;;;;2.55;2.28;;;;;;;28.94;36.34;100201.78;5041896;28;20043;-67
2023/08/11 08:14:12;;;;;;;2.22;2.10;;;;;;;28.96;35.71;100202.34;5041598;28;20039;-67
2023/08/11 08:16:41;;;;;;;2.28;1.73;;;;;;;29.20;35.37;100202.63;5042922;28;20045;-66
2023/08/11 08:19:07;;;;;;;3.88;1.75;;;;;;;29.18;35.08;100194.72;5045170;28;20060;-67
2023/08/11 08:21:33;;;;;;;2.67;2.10;;;;;;;29.25;35.77;100197.19;5043830;28;20057;-67
2023/08/11 08:23:59;;;;;;;2.05;1.95;;;;;;;29.35;35.26;100204.53;5043744;28;20047;-66
2023/08/11 08:26:25;;;;;;;1.95;1.85;;;;;;;29.39;34.98;100203.72;5043453;28;20099;-67
2023/08/11 08:28:50;;;;;;;2.97;2.72;;;;;;;29.21;33.05;100196.09;5043803;28;20029;-68
2023/08/11 08:31:16;;;;;;;5.00;2.60;;;;;;;29.21;34.85;100191.47;5042658;28;20335;-68
2023/08/11 08:33:43;;;;;;;3.53;1.80;;;;;;;29.23;35.00;100194.72;5043258;28;20086;-66
2023/08/11 08:36:09;;;;;;;2.05;1.85;;;;;;;29.38;35.17;100193.06;5043571;28;20491;-67
2023/08/11 08:38:35;;;;;;;5.15;2.40;;;;;;;29.45;34.11;100188.19;5042164;28;20034;-68
2023/08/11 08:41:07;;;;;;;1.88;1.77;;;;;;;29.40;32.64;100199.06;5043777;28;20083;-66
2023/08/11 08:43:33;;;;;;;1.73;1.47;;;;;;;29.52;32.25;100191.44;5043484;28;20047;-66
2023/08/11 08:46:03;;;;;;;2.13;1.90;;;;;;;29.47;31.88;100184.09;5042030;28;20071;-66
2023/08/11 08:48:39;;;;;;;3.08;2.88;;;;;;;29.61;32.68;100197.97;5042510;28;20038;-65
2023/08/11 08:51:06;;;;;;;1.70;1.60;;;;;;;29.60;31.02;100187.31;5041331;28;20029;-64
2023/08/11 08:53:31;;;;;;;3.83;3.35;;;;;;;29.60;32.31;100181.88;5042932;28;20037;-64
2023/08/11 08:56:03;;;;;;;1.70;1.42;;;;;;;29.83;32.49;100178.53;5042730;28;20077;-65
2023/08/11 08:58:29;;;;;;;1.98;1.77;;;;;;;29.95;32.70;100183.66;5042598;28;20331;-66
2023/08/11 09:00:54;;;;;;;2.30;2.10;;;;;;;30.04;32.00;100179.28;5044543;28;20048;-65
2023/08/11 09:03:20;;;;;;;3.75;1.92;;;;;;;30.10;33.09;100178.16;5042275;28;20101;-65
2023/08/11 09:05:46;;;;;;;2.33;1.70;;;;;;;30.11;32.27;100175.16;5042326;28;20033;-66
2023/08/11 09:08:11;;;;;;;2.08;1.67;;;;;;;30.07;32.89;100174.09;5044206;28;20300;-65
2023/08/11 09:10:37;;;;;;;2.10;1.50;;;;;;;30.07;32.76;100176.00;5040807;28;20025;-65
2023/08/11 09:13:03;;;;;;;2.13;1.80;;;;;;;30.03;31.77;100175.75;5042699;28;20025;-65
2023/08/11 09:15:29;;;;;;;1.90;1.67;;;;;;;29.78;33.10;100168.44;5042671;28;20171;-64
2023/08/11 09:17:55;;;;;;;3.63;2.22;;;;;;;29.99;32.31;100160.16;5043533;28;20277;-65
2023/08/11 09:20:20;;;;;;;2.13;1.92;;;;;;;30.11;31.78;100164.22;5042650;28;20048;-65
2023/08/11 09:22:46;;;;;;;2.38;1.73;;;;;;;30.05;32.06;100162.63;5040102;28;20353;-66
2023/08/11 09:25:12;;;;;;;1.80;1.45;;;;;;;30.00;30.65;100153.59;5043386;28;20051;-65
2023/08/11 09:27:38;;;;;;;2.67;1.60;;;;;;;29.72;30.01;100157.81;5042588;28;20370;-66
2023/08/11 09:30:04;;;;;;;2.47;1.92;;;;;;;29.43;31.53;100150.25;5042358;28;20033;-66
2023/08/11 09:32:35;;;;;;;2.00;1.80;;;;;;;29.40;31.70;100155.44;5041524;28;20045;-67
2023/08/11 09:35:12;;;;;;;2.40;1.80;;;;;;;29.33;32.64;100157.63;5043111;28;20037;-66
2023/08/11 09:37:37;;;;;;;2.53;2.33;;;;;;;29.15;32.58;100145.38;5043605;28;20068;-66
2023/08/11 09:40:04;;;;;;;3.22;1.83;;;;;;;29.20;34.82;100145.38;5044141;28;20033;-64
2023/08/11 09:42:31;;;;;;;2.67;1.60;;;;;;;29.30;33.05;100147.25;5046972;28;20033;-64
2023/08/11 09:44:56;;;;;;;2.08;1.40;;;;;;;29.35;32.74;100144.53;5027441;28;20390;-64
2023/08/11 09:47:22;;;;;;;2.00;1.60;;;;;;;29.34;32.86;100143.72;5042467;28;20033;-65
2023/08/11 09:49:47;;;;;;;1.48;1.38;;;;;;;29.36;33.18;100143.44;5044338;28;20360;-66
2023/08/11 09:52:14;;;;;;;2.65;1.80;;;;;;;29.35;33.47;100144.53;5043743;28;20044;-66
2023/08/11 09:54:42;;;;;;;1.95;1.60;;;;;;;29.32;32.09;100143.16;5042842;28;20112;-64
2023/08/11 09:57:08;;;;;;;2.47;1.73;;;;;;;29.25;33.01;100148.09;5043922;28;20231;-65
2023/08/11 09:59:35;;;;;;;1.70;1.60;;;;;;;29.27;32.06;100145.91;5040411;28;20033;-66
2023/08/11 10:02:02;;;;;;;1.48;1.38;;;;;;;29.18;31.53;100147.56;5041175;28;20036;-64
2023/08/11 10:04:38;;;;;;;1.83;1.40;;;;;;;29.08;32.21;100148.34;5042429;28;20028;-65
2023/08/11 10:07:09;;;;;;;1.70;1.60;;;;;;;29.06;32.05;100131.44;5042143;28;20064;-65
2023/08/11 10:09:36;;;;;;;1.67;1.40;;;;;;;29.13;34.16;100140.19;5041830;28;20040;-64
2023/08/11 10:12:04;;;;;;;2.03;1.70;;;;;;;29.16;33.05;100138.84;5041648;28;20039;-66
2023/08/11 10:14:32;;;;;;;2.00;1.85;;;;;;;29.10;32.77;100139.91;5042541;28;20033;-64
2023/08/11 10:16:59;;;;;;;2.22;1.45;;;;;;;29.19;33.51;100143.75;5043385;28;20068;-66
2023/08/11 10:19:25;;;;;;;2.10;1.48;;;;;;;29.25;32.59;100139.91;5041035;28;20056;-64
2023/08/11 10:21:50;;;;;;;1.90;1.50;;;;;;;29.30;32.74;100133.63;5040669;28;20029;-64
2023/08/11 10:24:16;;;;;;;5.45;5.05;;;;;;;29.21;32.32;100130.66;5042038;28;20222;-64
2023/08/11 10:26:42;;;;;;;2.33;2.22;;;;;;;29.17;31.74;100132.28;5041259;28;20048;-64
2023/08/11 10:29:11;;;;;;;1.83;1.40;;;;;;;29.20;33.04;100126.28;5042001;28;20032;-64
2023/08/11 10:31:52;;;;;;;1.58;1.48;;;;;;;29.15;32.07;100126.28;5041463;28;20065;-64
2023/08/11 10:34:21;;;;;;;1.95;1.85;;;;;;;29.11;32.94;100131.44;5041642;28;20401;-64
2023/08/11 10:36:46;;;;;;;2.60;1.77;;;;;;;29.05;33.01;100121.63;5040716;28;20033;-64
2023/08/11 10:39:18;;;;;;;2.33;1.10;;;;;;;29.06;32.64;100122.47;5041942;28;20242;-65
2023/08/11 10:41:45;;;;;;;3.17;1.48;;;;;;;28.99;32.40;100119.19;5041524;28;20033;-64
2023/08/11 10:44:10;;;;;;;1.95;1.75;;;;;;;28.88;31.42;100126.56;5043521;28;20044;-66
2023/08/11 10:46:36;;;;;;;3.13;1.90;;;;;;;28.84;33.53;100120.84;5041357;28;20038;-66
2023/08/11 10:49:05;;;;;;;2.28;1.65;;;;;;;28.99;33.11;100111.00;5041732;28;20021;-68
2023/08/11 10:51:32;;;;;;;2.15;1.83;;;;;;;29.07;33.47;100105.81;5044558;28;20045;-67
2023/08/11 10:54:02;;;;;;;2.75;1.60;;;;;;;29.18;32.85;100107.47;5043838;28;20345;-67
2023/08/11 10:56:32;;;;;;;1.30;1.20;;;;;;;29.23;32.52;100106.63;5043453;28;20044;-66
2023/08/11 10:59:17;;;;;;;2.67;1.50;;;;;;;29.31;33.22;100100.63;5045681;28;20351;-68
2023/08/11 11:01:47;;;;;;;1.63;1.20;;;;;;;29.32;32.79;100107.72;5044576;28;20075;-68
2023/08/11 11:04:14;;;;;;;2.42;1.92;;;;;;;29.26;31.80;100108.00;5043119;28;20068;-66
2023/08/11 11:06:40;;;;;;;2.08;1.50;;;;;;;29.20;30.68;100108.00;5043223;28;20342;-67
2023/08/11 11:09:07;;;;;;;1.55;1.45;;;;;;;28.90;31.29;100108.03;5044174;28;20045;-67
2023/08/11 11:11:36;;;;;;;2.65;1.38;;;;;;;28.86;31.43;100105.03;5044815;28;20096;-66
2023/08/11 11:14:01;;;;;;;3.33;1.45;;;;;;;28.95;32.10;100099.84;5045919;28;20092;-66
2023/08/11 11:16:27;;;;;;;2.10;1.55;;;;;;;28.90;31.25;100102.56;5042354;28;20068;-68
2023/08/11 11:18:52;;;;;;;2.17;1.45;;;;;;;28.93;31.57;100104.75;5044885;28;20108;-66
2023/08/11 11:21:19;;;;;;;1.60;1.42;;;;;;;28.90;30.83;100108.03;5045120;28;20134;-66